createdAt,value
2017-10-19T00:01:18.158Z,21.60
2017-10-19T00:03:46.421Z,21.60
2017-10-19T00:06:14.715Z,21.60
2017-10-19T00:08:43.173Z,21.50
2017-10-19T00:11:11.462Z,21.60
2017-10-19T00:13:40.682Z,21.60
2017-10-19T00:16:08.205Z,21.60
2017-10-19T00:18:36.470Z,21.60
2017-10-19T00:21:04.758Z,21.60
2017-10-19T00:23:33.990Z,21.60
2017-10-19T00:26:01.520Z,21.60
2017-10-19T00:28:29.782Z,21.60
2017-10-19T00:30:58.069Z,21.60
2017-10-19T00:33:26.343Z,21.70
2017-10-19T00:35:54.643Z,21.60
2017-10-19T00:38:22.146Z,21.60
2017-10-19T00:40:49.672Z,21.60
2017-10-19T00:43:17.170Z,21.60
2017-10-19T00:45:46.211Z,21.60
2017-10-19T00:48:13.706Z,21.60
2017-10-19T00:50:41.224Z,21.60
2017-10-19T00:53:08.726Z,21.60
2017-10-19T00:55:36.254Z,21.60
2017-10-19T00:58:03.747Z,21.60
2017-10-19T01:00:33.034Z,21.60
2017-10-19T01:03:00.538Z,21.60
2017-10-19T01:05:28.068Z,21.60
2017-10-19T01:07:56.333Z,21.60
2017-10-19T01:10:23.851Z,21.60
2017-10-19T01:12:51.345Z,21.60
2017-10-19T01:15:18.865Z,21.60
2017-10-19T01:17:46.371Z,21.50
2017-10-19T01:20:14.666Z,21.50
2017-10-19T01:22:42.174Z,21.50
2017-10-19T01:25:09.694Z,21.50
2017-10-19T01:27:37.190Z,21.50
2017-10-19T01:30:04.714Z,21.50
2017-10-19T01:32:32.215Z,21.50
2017-10-19T01:34:59.738Z,21.50
2017-10-19T01:37:27.230Z,21.50
2017-10-19T01:39:54.754Z,21.50
2017-10-19T01:42:22.301Z,21.50
2017-10-19T01:44:49.818Z,21.50
2017-10-19T01:47:18.082Z,21.50
2017-10-19T01:49:57.530Z,21.50
2017-10-19T01:52:25.790Z,21.50
2017-10-19T01:54:54.083Z,21.50
2017-10-19T01:57:22.341Z,21.50
2017-10-19T01:59:49.867Z,21.50
2017-10-19T02:02:17.382Z,21.50
2017-10-19T02:04:44.885Z,21.50
2017-10-19T02:07:14.353Z,21.40
2017-10-19T02:09:41.858Z,21.50
2017-10-19T02:12:09.398Z,21.40
2017-10-19T02:14:36.898Z,21.40
2017-10-19T02:17:05.163Z,21.40
2017-10-19T02:19:32.699Z,21.40
2017-10-19T02:22:00.190Z,21.40
2017-10-19T02:24:28.485Z,21.40
2017-10-19T02:26:55.989Z,21.40
2017-10-19T02:29:23.521Z,21.40
2017-10-19T02:31:51.023Z,21.40
2017-10-19T02:34:19.286Z,21.40
2017-10-19T02:36:48.747Z,21.40
2017-10-19T02:39:16.241Z,21.40
2017-10-19T02:41:43.771Z,21.40
2017-10-19T02:52:49.173Z,21.40
2017-10-19T02:55:16.670Z,21.40
2017-10-19T02:57:44.161Z,21.40
2017-10-19T03:00:11.679Z,21.40
2017-10-19T03:02:39.174Z,21.40
2017-10-19T03:05:06.702Z,21.40
2017-10-19T03:07:34.978Z,21.40
2017-10-19T03:10:03.266Z,21.40
2017-10-19T03:12:31.529Z,21.40
2017-10-19T03:14:59.813Z,21.40
2017-10-19T03:17:28.081Z,21.40
2017-10-19T03:19:56.345Z,21.40
2017-10-19T03:22:23.862Z,21.40
2017-10-19T03:24:51.366Z,21.40
2017-10-19T03:27:19.649Z,21.40
2017-10-19T03:29:47.918Z,21.30
2017-10-19T03:32:16.202Z,21.40
2017-10-19T03:34:44.957Z,21.40
2017-10-19T03:37:12.482Z,21.30
2017-10-19T03:39:39.997Z,21.30
2017-10-19T03:42:08.261Z,21.30
2017-10-19T03:44:36.546Z,21.30
2017-10-19T03:47:04.806Z,21.30
2017-10-19T03:49:33.095Z,21.30
2017-10-19T03:52:01.356Z,21.30
2017-10-19T03:54:28.877Z,21.30
2017-10-19T03:56:56.381Z,21.30
2017-10-19T03:59:24.662Z,21.30
2017-10-19T04:01:52.925Z,21.30
2017-10-19T04:04:21.194Z,21.30
2017-10-19T04:06:48.718Z,21.30
2017-10-19T04:09:16.210Z,21.30
2017-10-19T04:11:43.731Z,21.20
2017-10-19T04:14:12.174Z,21.30
2017-10-19T04:16:39.690Z,21.30
2017-10-19T04:19:07.195Z,21.30
2017-10-19T04:21:34.698Z,21.20
2017-10-19T04:24:02.223Z,21.20
2017-10-19T04:26:29.718Z,21.20
2017-10-19T04:28:58.737Z,21.20
2017-10-19T04:31:26.998Z,21.20
2017-10-19T04:33:55.296Z,21.20
2017-10-19T04:36:23.558Z,21.20
2017-10-19T04:38:53.807Z,21.20
2017-10-19T04:41:21.330Z,21.20
2017-10-19T04:43:49.594Z,21.20
2017-10-19T04:46:19.063Z,21.20
2017-10-19T04:48:46.553Z,21.20
2017-10-19T04:51:14.071Z,21.20
2017-10-19T04:53:42.514Z,21.20
2017-10-19T04:56:10.798Z,21.20
2017-10-19T04:58:39.057Z,21.20
2017-10-19T05:01:07.342Z,21.20
2017-10-19T05:03:35.606Z,21.20
2017-10-19T05:06:03.866Z,21.20
2017-10-19T05:08:32.150Z,21.20
2017-10-19T05:11:00.415Z,21.20
2017-10-19T05:13:27.933Z,21.20
2017-10-19T05:15:56.310Z,21.20
2017-10-19T05:18:23.830Z,21.20
2017-10-19T05:20:52.082Z,21.20
2017-10-19T05:23:19.602Z,21.20
2017-10-19T05:25:47.526Z,21.20
2017-10-19T05:28:15.098Z,21.20
2017-10-19T05:30:42.594Z,21.20
2017-10-19T05:33:10.118Z,21.20
2017-10-19T05:35:37.650Z,21.20
2017-10-19T05:38:05.919Z,21.20
2017-10-19T05:40:36.154Z,21.20
2017-10-19T05:43:04.872Z,21.20
2017-10-19T05:45:32.434Z,21.20
2017-10-19T05:47:59.987Z,21.20
2017-10-19T05:50:27.609Z,21.20
2017-10-19T05:52:56.145Z,21.20
2017-10-19T05:55:23.764Z,21.20
2017-10-19T05:57:51.442Z,21.20
2017-10-19T06:00:19.027Z,21.20
2017-10-19T06:02:46.667Z,21.20
2017-10-19T06:05:14.255Z,21.20
2017-10-19T06:07:43.839Z,21.20
2017-10-19T06:10:11.594Z,21.10
2017-10-19T06:12:41.303Z,21.10
2017-10-19T06:15:09.681Z,21.10
2017-10-19T06:17:37.637Z,21.10
2017-10-19T06:20:05.719Z,21.10
2017-10-19T06:22:33.891Z,21.10
2017-10-19T06:25:01.962Z,21.10
2017-10-19T06:27:30.136Z,21.10
2017-10-19T06:29:58.293Z,21.00
2017-10-19T06:32:26.478Z,21.10
2017-10-19T06:34:55.157Z,21.10
2017-10-19T06:37:24.360Z,21.10
2017-10-19T06:39:53.865Z,21.10
2017-10-19T06:42:21.921Z,21.10
2017-10-19T06:44:51.133Z,21.10
2017-10-19T06:47:19.401Z,21.10
2017-10-19T06:49:48.397Z,21.10
2017-10-19T06:52:16.451Z,21.10
2017-10-19T06:54:44.639Z,21.00
2017-10-19T06:57:13.631Z,21.00
2017-10-19T06:59:41.702Z,21.00
2017-10-19T07:02:09.669Z,21.00
2017-10-19T07:04:38.675Z,21.00
2017-10-19T07:07:06.943Z,20.90
2017-10-19T07:09:35.518Z,20.90
2017-10-19T07:12:03.486Z,20.90
2017-10-19T07:14:31.044Z,20.90
2017-10-19T07:16:58.570Z,20.90
2017-10-19T07:19:26.841Z,20.90
2017-10-19T07:21:55.137Z,20.90
2017-10-19T07:24:22.641Z,20.90
2017-10-19T07:26:50.941Z,20.90
2017-10-19T07:29:19.221Z,20.90
2017-10-19T07:31:47.506Z,20.90
2017-10-19T07:34:15.041Z,20.90
2017-10-19T07:36:44.073Z,21.00
2017-10-19T07:39:11.590Z,21.00
2017-10-19T07:41:39.885Z,21.00
2017-10-19T07:44:08.153Z,21.10
2017-10-19T07:46:36.449Z,21.10
2017-10-19T07:49:03.957Z,21.00
2017-10-19T07:51:31.483Z,21.00
2017-10-19T07:53:58.991Z,21.00
2017-10-19T07:56:27.303Z,21.10
2017-10-19T07:58:55.761Z,21.00
2017-10-19T08:01:24.029Z,21.10
2017-10-19T08:03:52.326Z,21.10
2017-10-19T08:06:21.851Z,21.10
2017-10-19T08:08:49.351Z,21.10
2017-10-19T08:11:16.877Z,21.10
2017-10-19T08:13:44.381Z,21.10
2017-10-19T08:16:12.677Z,21.10
2017-10-19T08:18:40.190Z,21.10
2017-10-19T08:21:07.718Z,21.10
2017-10-19T08:23:35.227Z,21.10
2017-10-19T08:26:03.525Z,21.10
2017-10-19T08:28:31.042Z,21.10
2017-10-19T08:30:58.570Z,21.10
2017-10-19T08:33:26.078Z,21.10
2017-10-19T08:35:54.378Z,21.10
2017-10-19T08:38:21.888Z,21.10
2017-10-19T08:40:49.420Z,21.10
2017-10-19T08:43:16.934Z,21.10
2017-10-19T08:45:44.465Z,21.10
2017-10-19T08:48:11.962Z,21.10
2017-10-19T08:50:39.502Z,21.10
2017-10-19T08:53:07.784Z,21.10
2017-10-19T08:55:35.333Z,21.10
2017-10-19T08:58:03.601Z,21.10
2017-10-19T09:00:31.897Z,21.10
2017-10-19T09:02:59.404Z,21.10
2017-10-19T09:05:26.911Z,21.10
2017-10-19T09:07:54.446Z,21.10
2017-10-19T09:10:21.974Z,21.10
2017-10-19T09:12:49.506Z,21.10
2017-10-19T09:15:17.022Z,21.10
2017-10-19T09:17:46.498Z,21.10
2017-10-19T09:20:14.001Z,21.10
2017-10-19T09:22:41.526Z,21.10
2017-10-19T09:25:09.789Z,21.10
2017-10-19T09:27:37.318Z,21.10
2017-10-19T09:30:04.834Z,21.10
2017-10-19T09:32:35.081Z,21.10
2017-10-19T09:35:02.594Z,21.10
2017-10-19T09:37:30.894Z,21.10
2017-10-19T09:39:58.401Z,21.10
2017-10-19T09:42:25.927Z,21.10
2017-10-19T09:44:53.474Z,21.10
2017-10-19T09:47:20.981Z,21.10
2017-10-19T09:49:48.513Z,21.10
2017-10-19T09:52:16.025Z,21.10
2017-10-19T09:54:44.290Z,21.10
2017-10-19T09:57:12.582Z,21.10
2017-10-19T09:59:41.058Z,21.10
2017-10-19T10:02:09.347Z,21.10
2017-10-19T10:04:36.853Z,21.10
2017-10-19T10:07:05.314Z,21.10
2017-10-19T10:09:32.833Z,21.10
2017-10-19T10:12:00.338Z,21.00
2017-10-19T10:14:27.878Z,21.00
2017-10-19T10:16:55.384Z,21.00
2017-10-19T10:19:23.653Z,21.10
2017-10-19T10:21:51.181Z,21.00
2017-10-19T10:24:18.687Z,21.00
2017-10-19T10:26:46.971Z,21.10
2017-10-19T10:29:14.469Z,21.00
2017-10-19T10:31:41.971Z,21.10
2017-10-19T10:34:10.285Z,21.10
2017-10-19T10:36:37.790Z,21.10
2017-10-19T10:39:06.099Z,21.10
2017-10-19T10:41:33.597Z,21.10
2017-10-19T10:44:01.102Z,21.10
2017-10-19T10:46:28.621Z,21.10
2017-10-19T10:48:56.890Z,21.10
2017-10-19T10:51:26.352Z,21.10
2017-10-19T10:53:53.853Z,21.10
2017-10-19T10:56:21.378Z,21.00
2017-10-19T10:58:48.889Z,21.10
2017-10-19T11:01:17.185Z,21.10
2017-10-19T11:03:45.649Z,21.10
2017-10-19T11:06:13.965Z,21.10
2017-10-19T11:08:41.465Z,21.10
2017-10-19T11:11:08.986Z,21.10
2017-10-19T11:13:36.485Z,21.10
2017-10-19T11:16:04.774Z,21.10
2017-10-19T11:18:33.318Z,21.10
2017-10-19T11:21:02.361Z,21.10
2017-10-19T11:23:30.801Z,21.10
2017-10-19T11:25:58.326Z,21.10
2017-10-19T11:28:25.820Z,21.10
2017-10-19T11:30:53.345Z,21.10
2017-10-19T11:33:20.849Z,21.10
2017-10-19T11:35:49.146Z,21.10
2017-10-19T11:38:16.655Z,21.10
2017-10-19T11:40:44.186Z,21.10
2017-10-19T11:43:11.688Z,21.10
2017-10-19T11:45:39.969Z,21.10
2017-10-19T11:48:08.234Z,21.10
2017-10-19T11:50:35.759Z,21.10
2017-10-19T11:53:03.264Z,21.10
2017-10-19T11:55:33.526Z,21.10
2017-10-19T11:58:01.036Z,21.10
2017-10-19T12:00:29.320Z,21.10
2017-10-19T12:02:57.587Z,21.10
2017-10-19T12:05:26.837Z,21.10
2017-10-19T12:07:54.333Z,21.10
2017-10-19T12:10:22.625Z,21.20
2017-10-19T12:12:50.902Z,21.20
2017-10-19T12:15:19.190Z,21.20
2017-10-19T12:17:46.710Z,21.20
2017-10-19T12:20:14.230Z,21.20
2017-10-19T12:22:41.735Z,21.20
2017-10-19T12:25:10.023Z,21.20
2017-10-19T12:27:38.294Z,21.20
2017-10-19T12:30:06.583Z,21.20
2017-10-19T12:32:34.078Z,21.20
2017-10-19T12:35:01.616Z,21.20
2017-10-19T12:37:29.116Z,21.20
2017-10-19T12:39:56.638Z,21.20
2017-10-19T12:42:25.062Z,21.30
2017-10-19T12:44:54.094Z,21.20
2017-10-19T12:47:21.613Z,21.20
2017-10-19T12:49:49.911Z,21.20
2017-10-19T12:52:17.417Z,21.20
2017-10-19T12:54:44.944Z,21.20
2017-10-19T12:57:12.450Z,21.20
2017-10-19T12:59:39.975Z,21.20
2017-10-19T13:02:07.477Z,21.30
2017-10-19T13:04:35.763Z,21.20
2017-10-19T13:07:04.026Z,21.20
2017-10-19T13:09:32.317Z,21.20
2017-10-19T13:12:00.581Z,21.20
2017-10-19T13:14:28.868Z,21.30
2017-10-19T13:16:56.373Z,21.20
2017-10-19T13:19:23.905Z,21.30
2017-10-19T13:21:51.410Z,21.20
2017-10-19T13:24:19.682Z,21.30
2017-10-19T13:26:47.206Z,21.20
2017-10-19T13:29:14.703Z,21.30
2017-10-19T13:31:42.226Z,21.30
2017-10-19T13:34:09.726Z,21.30
2017-10-19T13:36:38.006Z,21.30
2017-10-19T13:39:06.285Z,21.30
2017-10-19T13:41:34.581Z,21.30
2017-10-19T13:44:02.087Z,21.30
2017-10-19T13:46:29.611Z,21.30
2017-10-19T13:48:58.058Z,21.30
2017-10-19T13:51:26.348Z,21.30
2017-10-19T13:53:53.837Z,21.30
2017-10-19T13:56:21.378Z,21.30
2017-10-19T13:58:48.883Z,21.30
2017-10-19T14:01:17.177Z,21.30
2017-10-19T14:03:45.433Z,21.30
2017-10-19T14:06:12.954Z,21.20
2017-10-19T14:08:40.454Z,21.20
2017-10-19T14:11:08.738Z,21.20
2017-10-19T14:13:36.999Z,21.20
2017-10-19T14:16:05.317Z,21.20
2017-10-19T14:18:32.830Z,21.20
2017-10-19T14:21:02.083Z,21.20
2017-10-19T14:23:29.578Z,21.20
2017-10-19T14:25:57.097Z,21.30
2017-10-19T14:28:24.594Z,21.20
2017-10-19T14:30:52.110Z,21.20
2017-10-19T14:33:19.606Z,21.20
2017-10-19T14:35:47.899Z,21.20
2017-10-19T14:38:16.157Z,21.20
2017-10-19T14:40:45.634Z,21.20
2017-10-19T14:43:13.135Z,21.20
2017-10-19T14:45:41.422Z,21.20
2017-10-19T14:48:09.889Z,21.20
2017-10-19T14:50:38.181Z,21.20
2017-10-19T14:53:06.645Z,21.20
2017-10-19T14:55:34.930Z,21.20
2017-10-19T14:58:04.141Z,21.20
2017-10-19T15:00:31.670Z,21.20
2017-10-19T15:02:59.933Z,21.20
2017-10-19T15:05:27.458Z,21.20
2017-10-19T15:07:54.958Z,21.20
2017-10-19T15:10:23.246Z,21.20
2017-10-19T15:12:51.505Z,21.20
2017-10-19T15:15:19.789Z,21.20
2017-10-19T15:17:48.050Z,21.20
2017-10-19T15:20:16.345Z,21.20
2017-10-19T15:22:44.605Z,21.20
2017-10-19T15:25:12.885Z,21.20
2017-10-19T15:27:41.154Z,21.20
2017-10-19T15:30:09.444Z,21.20
2017-10-19T15:32:37.710Z,21.20
2017-10-19T15:35:05.999Z,21.20
2017-10-19T15:37:33.510Z,21.20
2017-10-19T15:40:01.035Z,21.20
2017-10-19T15:42:29.482Z,21.20
2017-10-19T15:44:57.766Z,21.20
2017-10-19T15:47:26.031Z,21.20
2017-10-19T15:49:54.326Z,21.20
2017-10-19T15:52:21.826Z,21.10
2017-10-19T15:54:49.366Z,21.20
2017-10-19T15:57:16.870Z,21.20
2017-10-19T15:59:45.156Z,21.20
2017-10-19T16:02:13.413Z,21.20
2017-10-19T16:04:44.367Z,21.10
2017-10-19T16:07:12.634Z,21.20
2017-10-19T16:09:40.922Z,21.20
2017-10-19T16:12:09.188Z,21.10
2017-10-19T16:14:37.466Z,21.10
2017-10-19T16:17:05.721Z,21.10
2017-10-19T16:19:34.202Z,21.10
2017-10-19T16:22:01.694Z,21.10
2017-10-19T16:24:29.218Z,21.10
2017-10-19T16:26:58.440Z,21.10
2017-10-19T16:29:25.961Z,21.10
2017-10-19T16:31:53.457Z,21.10
2017-10-19T16:34:20.970Z,21.10
2017-10-19T16:36:48.471Z,21.10
2017-10-19T16:39:15.998Z,21.00
2017-10-19T16:41:44.261Z,21.00
2017-10-19T16:44:11.789Z,21.00
2017-10-19T16:46:39.277Z,21.00
2017-10-19T16:49:07.241Z,21.00
2017-10-19T16:51:34.737Z,21.00
2017-10-19T16:54:03.018Z,21.00
2017-10-19T16:56:30.530Z,21.00
2017-10-19T16:58:58.965Z,20.90
2017-10-19T17:01:26.466Z,21.00
2017-10-19T17:03:53.963Z,20.90
2017-10-19T17:06:21.482Z,20.90
2017-10-19T17:08:48.975Z,20.90
2017-10-19T17:11:16.498Z,20.90
2017-10-19T17:13:43.997Z,20.90
2017-10-19T17:16:11.522Z,20.90
2017-10-19T17:18:39.021Z,20.90
2017-10-19T17:21:06.546Z,20.90
2017-10-19T17:23:34.838Z,20.90
2017-10-19T17:26:02.369Z,20.90
2017-10-19T17:28:30.630Z,20.90
2017-10-19T17:30:58.148Z,20.90
2017-10-19T17:33:25.646Z,20.90
2017-10-19T17:35:53.170Z,20.90
2017-10-19T17:38:20.667Z,20.90
2017-10-19T17:40:48.190Z,20.90
2017-10-19T17:43:15.698Z,20.90
2017-10-19T17:45:43.986Z,20.90
2017-10-19T17:48:12.245Z,20.90
2017-10-19T17:50:40.534Z,20.90
2017-10-19T17:53:08.038Z,20.90
2017-10-19T17:55:35.562Z,20.90
2017-10-19T17:58:03.081Z,20.90
2017-10-19T18:00:30.601Z,20.90
2017-10-19T18:02:58.105Z,20.90
2017-10-19T18:05:25.650Z,20.80
2017-10-19T18:07:53.150Z,20.80
2017-10-19T18:10:20.677Z,20.90
2017-10-19T18:12:48.949Z,20.90
2017-10-19T18:15:18.186Z,20.80
2017-10-19T18:17:45.688Z,20.80
2017-10-19T18:20:13.214Z,20.90
2017-10-19T18:22:40.722Z,20.80
2017-10-19T18:25:09.010Z,20.80
2017-10-19T18:27:36.510Z,20.80
2017-10-19T18:30:04.034Z,20.80
2017-10-19T18:32:32.490Z,20.80
2017-10-19T18:35:00.782Z,20.80
2017-10-19T18:37:28.302Z,20.80
2017-10-19T18:39:55.826Z,20.80
2017-10-19T18:42:24.277Z,20.90
2017-10-19T18:44:51.796Z,20.90
2017-10-19T18:47:19.309Z,20.80
2017-10-19T18:49:48.786Z,20.90
2017-10-19T18:52:17.377Z,20.90
2017-10-19T18:54:46.393Z,20.90
2017-10-19T18:57:14.725Z,20.90
2017-10-19T18:59:43.758Z,20.90
2017-10-19T19:02:11.828Z,20.90
2017-10-19T19:04:40.717Z,20.90
2017-10-19T19:07:08.658Z,20.90
2017-10-19T19:09:36.652Z,20.90
2017-10-19T19:12:04.825Z,20.90
2017-10-19T19:14:34.125Z,20.90
2017-10-19T19:17:02.196Z,20.90
2017-10-19T19:19:31.390Z,20.90
2017-10-19T19:22:00.310Z,20.90
2017-10-19T19:24:30.380Z,20.90
2017-10-19T19:26:58.367Z,20.90
2017-10-19T19:29:26.333Z,21.00
2017-10-19T19:31:54.372Z,21.00
2017-10-19T19:34:22.473Z,21.00
2017-10-19T19:36:51.467Z,21.00
2017-10-19T19:39:20.457Z,21.00
2017-10-19T19:41:48.329Z,21.00
2017-10-19T19:44:16.148Z,21.00
2017-10-19T19:46:44.753Z,21.00
2017-10-19T19:49:12.384Z,21.00
2017-10-19T19:51:40.904Z,21.00
2017-10-19T19:54:09.702Z,21.00
2017-10-19T19:56:37.460Z,21.00
2017-10-19T19:59:04.983Z,21.00
2017-10-19T20:01:33.270Z,21.00
2017-10-19T20:04:01.261Z,20.90
2017-10-19T20:06:29.023Z,21.00
2017-10-19T20:08:56.738Z,21.00
2017-10-19T20:11:24.651Z,21.00
2017-10-19T20:13:52.828Z,21.00
2017-10-19T20:16:20.793Z,21.00
2017-10-19T20:18:49.886Z,21.00
2017-10-19T20:21:18.674Z,21.00
2017-10-19T20:23:46.540Z,21.00
2017-10-19T20:26:14.083Z,21.00
2017-10-19T20:28:41.602Z,21.00
2017-10-19T20:31:09.827Z,21.10
2017-10-19T20:33:37.510Z,21.10
2017-10-19T20:36:05.268Z,21.10
2017-10-19T20:38:32.792Z,21.10
2017-10-19T20:41:00.326Z,21.10
2017-10-19T20:43:28.600Z,21.10
2017-10-19T20:45:56.881Z,21.10
2017-10-19T20:48:25.141Z,21.10
2017-10-19T20:50:52.749Z,21.10
2017-10-19T20:53:20.278Z,21.10
2017-10-19T20:55:48.542Z,21.10
2017-10-19T20:58:16.831Z,21.10
2017-10-19T21:00:44.330Z,21.10
2017-10-19T21:03:11.856Z,21.10
2017-10-19T21:05:39.635Z,21.10
2017-10-19T21:08:07.705Z,21.10
2017-10-19T21:10:35.877Z,21.10
2017-10-19T21:13:04.335Z,21.20
2017-10-19T21:15:32.221Z,21.20
2017-10-19T21:18:00.087Z,21.20
2017-10-19T21:20:27.643Z,21.20
2017-10-19T21:22:56.432Z,21.20
2017-10-19T21:25:23.957Z,21.20
2017-10-19T21:27:52.226Z,21.10
2017-10-19T21:30:20.513Z,21.20
2017-10-19T21:32:48.777Z,21.20
2017-10-19T21:35:16.601Z,21.20
2017-10-19T21:37:44.125Z,21.20
2017-10-19T21:40:11.660Z,21.20
2017-10-19T21:42:39.559Z,21.10
2017-10-19T21:45:07.424Z,21.20
2017-10-19T21:47:35.393Z,21.10
2017-10-19T21:50:04.384Z,21.20
2017-10-19T21:52:32.453Z,21.20
2017-10-19T21:55:00.459Z,21.20
2017-10-19T21:57:28.595Z,21.20
2017-10-19T21:59:56.561Z,21.20
2017-10-19T22:02:30.762Z,21.20
2017-10-19T22:04:58.948Z,21.20
2017-10-19T22:07:27.021Z,21.20
2017-10-19T22:09:55.191Z,21.20
2017-10-19T22:12:24.285Z,21.20
2017-10-19T22:14:52.252Z,21.20
2017-10-19T22:17:20.222Z,21.20
2017-10-19T22:19:50.235Z,21.20
2017-10-19T22:22:19.228Z,21.20
2017-10-19T22:24:47.093Z,21.20
2017-10-19T22:27:14.959Z,21.30
2017-10-19T22:29:42.825Z,21.20
2017-10-19T22:32:11.713Z,21.30
2017-10-19T22:34:40.704Z,21.20
2017-10-19T22:37:08.674Z,21.30
2017-10-19T22:39:36.503Z,21.30
2017-10-19T22:42:04.506Z,21.30
2017-10-19T22:44:32.577Z,21.30
2017-10-19T22:47:00.545Z,21.30
2017-10-19T22:49:28.492Z,21.30
2017-10-19T22:51:56.544Z,21.30
2017-10-19T22:54:25.470Z,21.30
2017-10-19T22:56:53.404Z,21.30
2017-10-19T22:59:21.407Z,21.30
2017-10-19T23:01:49.475Z,21.30
2017-10-19T23:04:18.571Z,21.30
2017-10-19T23:06:46.335Z,21.30
2017-10-19T23:09:14.301Z,21.30
2017-10-19T23:11:42.269Z,21.30
2017-10-19T23:14:10.340Z,21.30
2017-10-19T23:16:38.259Z,21.30
2017-10-19T23:19:06.991Z,21.30
2017-10-19T23:21:34.856Z,21.30
2017-10-19T23:24:03.847Z,21.30
2017-10-19T23:26:32.432Z,21.30
2017-10-19T23:28:59.953Z,21.30
2017-10-19T23:31:28.219Z,21.40
2017-10-19T23:33:56.502Z,21.40
2017-10-19T23:36:24.761Z,21.30
2017-10-19T23:38:52.274Z,21.30
2017-10-19T23:41:19.765Z,21.30
2017-10-19T23:43:47.291Z,21.40
2017-10-19T23:46:14.806Z,21.30
2017-10-19T23:48:43.099Z,21.40
2017-10-19T23:51:10.638Z,21.40
2017-10-19T23:53:38.928Z,21.40
2017-10-19T23:56:06.435Z,21.30
2017-10-19T23:58:33.935Z,21.40
